sensor_id;sensor_type;location;lat;lon;timestamp;P1;durP1;ratioP1;P2;durP2;ratioP2
80619;SDS011;69979;53.682;-2.690;2023-09-19T00:02:25;1;;;1;;
80619;SDS011;69979;53.682;-2.690;2023-09-19T00:04:50;3;;;3;;
80619;SDS011;69979;53.682;-2.690;2023-09-19T00:07:16;1;;;1;;
80619;SDS011;69979;53.682;-2.690;2023-09-19T00:09:42;2;;;2;;
80619;SDS011;69979;53.682;-2.690;2023-09-19T00:12:07;1;;;1;;
80619;SDS011;69979;53.682;-2.690;2023-09-19T00:14:33;1;;;1;;
80619;SDS011;69979;53.682;-2.690;2023-09-19T00:16:58;3;;;3;;
80619;SDS011;69979;53.682;-2.690;2023-09-19T00:19:23;1;;;1;;
80619;SDS011;69979;53.682;-2.690;2023-09-19T00:21:49;3;;;2;;
80619;SDS011;69979;53.682;-2.690;2023-09-19T00:24:14;3;;;3;;
80619;SDS011;69979;53.682;-2.690;2023-09-19T00:26:40;2;;;2;;
80619;SDS011;69979;53.682;-2.690;2023-09-19T00:29:05;3;;;2;;
80619;SDS011;69979;53.682;-2.690;2023-09-19T00:31:31;3;;;2;;
80619;SDS011;69979;53.682;-2.690;2023-09-19T00:33:57;2;;;1;;
80619;SDS011;69979;53.682;-2.690;2023-09-19T00:36:22;4;;;2;;
80619;SDS011;69979;53.682;-2.690;2023-09-19T00:38:47;1;;;0;;
80619;SDS011;69979;53.682;-2.690;2023-09-19T00:41:13;4;;;2;;
80619;SDS011;69979;53.682;-2.690;2023-09-19T00:43:38;3;;;2;;
80619;SDS011;69979;53.682;-2.690;2023-09-19T00:46:04;4;;;3;;
80619;SDS011;69979;53.682;-2.690;2023-09-19T00:48:29;1;;;1;;
80619;SDS011;69979;53.682;-2.690;2023-09-19T00:50:54;3;;;3;;
80619;SDS011;69979;53.682;-2.690;2023-09-19T00:53:20;1;;;1;;
80619;SDS011;69979;53.682;-2.690;2023-09-19T00:55:46;4;;;4;;
80619;SDS011;69979;53.682;-2.690;2023-09-19T00:58:11;4;;;1;;
80619;SDS011;69979;53.682;-2.690;2023-09-19T01:00:37;4;;;4;;
80619;SDS011;69979;53.682;-2.690;2023-09-19T01:03:03;3;;;3;;
80619;SDS011;69979;53.682;-2.690;2023-09-19T01:05:28;5;;;5;;
80619;SDS011;69979;53.682;-2.690;2023-09-19T01:07:53;4;;;3;;
80619;SDS011;69979;53.682;-2.690;2023-09-19T01:10:19;3;;;3;;
80619;SDS011;69979;53.682;-2.690;2023-09-19T01:12:47;6;;;5;;
80619;SDS011;69979;53.682;-2.690;2023-09-19T01:15:12;3;;;3;;
80619;SDS011;69979;53.682;-2.690;2023-09-19T01:17:38;3;;;3;;
80619;SDS011;69979;53.682;-2.690;2023-09-19T01:20:11;3;;;3;;
80619;SDS011;69979;53.682;-2.690;2023-09-19T01:22:29;3;;;2;;
80619;SDS011;69979;53.682;-2.690;2023-09-19T01:27:21;4;;;3;;
80619;SDS011;69979;53.682;-2.690;2023-09-19T01:29:44;4;;;3;;
80619;SDS011;69979;53.682;-2.690;2023-09-19T01:32:08;3;;;3;;
80619;SDS011;69979;53.682;-2.690;2023-09-19T01:37:00;3;;;3;;
80619;SDS011;69979;53.682;-2.690;2023-09-19T01:39:25;5;;;4;;
80619;SDS011;69979;53.682;-2.690;2023-09-19T01:41:56;2;;;1;;
80619;SDS011;69979;53.682;-2.690;2023-09-19T01:44:19;8;;;6;;
80619;SDS011;69979;53.682;-2.690;2023-09-19T01:46:41;6;;;4;;
80619;SDS011;69979;53.682;-2.690;2023-09-19T01:49:09;6;;;4;;
80619;SDS011;69979;53.682;-2.690;2023-09-19T01:51:33;4;;;3;;
80619;SDS011;69979;53.682;-2.690;2023-09-19T01:54:00;5;;;4;;
80619;SDS011;69979;53.682;-2.690;2023-09-19T01:56:25;4;;;4;;
80619;SDS011;69979;53.682;-2.690;2023-09-19T01:58:50;6;;;5;;
80619;SDS011;69979;53.682;-2.690;2023-09-19T02:01:16;4;;;4;;
80619;SDS011;69979;53.682;-2.690;2023-09-19T02:03:40;4;;;3;;
80619;SDS011;69979;53.682;-2.690;2023-09-19T02:06:06;4;;;4;;
80619;SDS011;69979;53.682;-2.690;2023-09-19T02:08:31;6;;;6;;
80619;SDS011;69979;53.682;-2.690;2023-09-19T02:10:57;5;;;5;;
80619;SDS011;69979;53.682;-2.690;2023-09-19T02:13:22;3;;;3;;
80619;SDS011;69979;53.682;-2.690;2023-09-19T02:15:48;5;;;3;;
80619;SDS011;69979;53.682;-2.690;2023-09-19T02:18:14;5;;;4;;
80619;SDS011;69979;53.682;-2.690;2023-09-19T02:20:39;6;;;5;;
80619;SDS011;69979;53.682;-2.690;2023-09-19T02:23:05;4;;;4;;
80619;SDS011;69979;53.682;-2.690;2023-09-19T02:25:30;7;;;4;;
80619;SDS011;69979;53.682;-2.690;2023-09-19T02:27:56;4;;;4;;
80619;SDS011;69979;53.682;-2.690;2023-09-19T02:30:21;6;;;6;;
80619;SDS011;69979;53.682;-2.690;2023-09-19T02:32:46;5;;;5;;
80619;SDS011;69979;53.682;-2.690;2023-09-19T02:35:12;3;;;2;;
80619;SDS011;69979;53.682;-2.690;2023-09-19T02:37:38;4;;;3;;
80619;SDS011;69979;53.682;-2.690;2023-09-19T02:40:03;5;;;4;;
80619;SDS011;69979;53.682;-2.690;2023-09-19T02:42:28;5;;;5;;
80619;SDS011;69979;53.682;-2.690;2023-09-19T02:44:54;6;;;4;;
80619;SDS011;69979;53.682;-2.690;2023-09-19T02:47:20;4;;;4;;
80619;SDS011;69979;53.682;-2.690;2023-09-19T02:49:45;7;;;6;;
80619;SDS011;69979;53.682;-2.690;2023-09-19T02:52:10;4;;;4;;
80619;SDS011;69979;53.682;-2.690;2023-09-19T02:54:36;6;;;4;;
80619;SDS011;69979;53.682;-2.690;2023-09-19T02:57:02;4;;;4;;
80619;SDS011;69979;53.682;-2.690;2023-09-19T02:59:27;4;;;4;;
80619;SDS011;69979;53.682;-2.690;2023-09-19T03:01:52;5;;;3;;
80619;SDS011;69979;53.682;-2.690;2023-09-19T03:04:18;3;;;2;;
80619;SDS011;69979;53.682;-2.690;2023-09-19T03:06:44;8;;;7;;
80619;SDS011;69979;53.682;-2.690;2023-09-19T03:09:09;3;;;3;;
80619;SDS011;69979;53.682;-2.690;2023-09-19T03:11:34;3;;;3;;
80619;SDS011;69979;53.682;-2.690;2023-09-19T03:14:00;5;;;4;;
80619;SDS011;69979;53.682;-2.690;2023-09-19T03:16:25;2;;;1;;
80619;SDS011;69979;53.682;-2.690;2023-09-19T03:18:51;4;;;4;;
80619;SDS011;69979;53.682;-2.690;2023-09-19T03:21:16;3;;;3;;
80619;SDS011;69979;53.682;-2.690;2023-09-19T03:23:42;5;;;4;;
80619;SDS011;69979;53.682;-2.690;2023-09-19T03:26:07;4;;;4;;
80619;SDS011;69979;53.682;-2.690;2023-09-19T03:28:33;2;;;2;;
80619;SDS011;69979;53.682;-2.690;2023-09-19T03:30:59;4;;;3;;
80619;SDS011;69979;53.682;-2.690;2023-09-19T03:33:24;4;;;4;;
80619;SDS011;69979;53.682;-2.690;2023-09-19T03:35:51;4;;;4;;
80619;SDS011;69979;53.682;-2.690;2023-09-19T03:38:15;4;;;4;;
80619;SDS011;69979;53.682;-2.690;2023-09-19T03:40:41;2;;;2;;
80619;SDS011;69979;53.682;-2.690;2023-09-19T03:43:06;0;;;0;;
80619;SDS011;69979;53.682;-2.690;2023-09-19T03:45:33;5;;;4;;
80619;SDS011;69979;53.682;-2.690;2023-09-19T03:47:58;3;;;2;;
80619;SDS011;69979;53.682;-2.690;2023-09-19T03:50:23;3;;;2;;
80619;SDS011;69979;53.682;-2.690;2023-09-19T03:52:49;5;;;5;;
80619;SDS011;69979;53.682;-2.690;2023-09-19T03:55:14;5;;;4;;
80619;SDS011;69979;53.682;-2.690;2023-09-19T03:57:40;3;;;3;;
80619;SDS011;69979;53.682;-2.690;2023-09-19T04:00:06;2;;;2;;
80619;SDS011;69979;53.682;-2.690;2023-09-19T04:02:31;3;;;3;;
80619;SDS011;69979;53.682;-2.690;2023-09-19T04:04:57;3;;;2;;
80619;SDS011;69979;53.682;-2.690;2023-09-19T04:07:22;3;;;3;;
80619;SDS011;69979;53.682;-2.690;2023-09-19T04:09:48;2;;;2;;
80619;SDS011;69979;53.682;-2.690;2023-09-19T04:12:13;3;;;2;;
80619;SDS011;69979;53.682;-2.690;2023-09-19T04:14:39;3;;;3;;
80619;SDS011;69979;53.682;-2.690;2023-09-19T04:17:04;5;;;4;;
80619;SDS011;69979;53.682;-2.690;2023-09-19T04:19:30;3;;;3;;
80619;SDS011;69979;53.682;-2.690;2023-09-19T04:21:55;3;;;3;;
80619;SDS011;69979;53.682;-2.690;2023-09-19T04:24:21;3;;;3;;
80619;SDS011;69979;53.682;-2.690;2023-09-19T04:26:47;5;;;3;;
80619;SDS011;69979;53.682;-2.690;2023-09-19T04:29:12;4;;;4;;
80619;SDS011;69979;53.682;-2.690;2023-09-19T04:31:38;2;;;2;;
80619;SDS011;69979;53.682;-2.690;2023-09-19T04:34:03;1;;;1;;
80619;SDS011;69979;53.682;-2.690;2023-09-19T04:36:29;5;;;3;;
80619;SDS011;69979;53.682;-2.690;2023-09-19T04:38:54;5;;;5;;
80619;SDS011;69979;53.682;-2.690;2023-09-19T04:41:20;3;;;3;;
80619;SDS011;69979;53.682;-2.690;2023-09-19T04:43:45;4;;;4;;
80619;SDS011;69979;53.682;-2.690;2023-09-19T04:46:11;2;;;2;;
80619;SDS011;69979;53.682;-2.690;2023-09-19T04:48:36;2;;;2;;
80619;SDS011;69979;53.682;-2.690;2023-09-19T04:51:02;2;;;2;;
80619;SDS011;69979;53.682;-2.690;2023-09-19T04:53:27;2;;;2;;
80619;SDS011;69979;53.682;-2.690;2023-09-19T04:55:53;3;;;3;;
80619;SDS011;69979;53.682;-2.690;2023-09-19T04:58:18;5;;;4;;
80619;SDS011;69979;53.682;-2.690;2023-09-19T05:00:44;6;;;3;;
80619;SDS011;69979;53.682;-2.690;2023-09-19T05:03:09;3;;;2;;
80619;SDS011;69979;53.682;-2.690;2023-09-19T05:05:35;6;;;3;;
80619;SDS011;69979;53.682;-2.690;2023-09-19T05:08:00;4;;;3;;
80619;SDS011;69979;53.682;-2.690;2023-09-19T05:10:26;5;;;5;;
80619;SDS011;69979;53.682;-2.690;2023-09-19T05:12:52;4;;;4;;
80619;SDS011;69979;53.682;-2.690;2023-09-19T05:15:17;3;;;2;;
80619;SDS011;69979;53.682;-2.690;2023-09-19T05:17:47;4;;;4;;
80619;SDS011;69979;53.682;-2.690;2023-09-19T05:20:09;2;;;2;;
80619;SDS011;69979;53.682;-2.690;2023-09-19T05:22:34;3;;;3;;
80619;SDS011;69979;53.682;-2.690;2023-09-19T05:25:00;4;;;3;;
80619;SDS011;69979;53.682;-2.690;2023-09-19T05:27:25;5;;;4;;
80619;SDS011;69979;53.682;-2.690;2023-09-19T05:29:51;3;;;3;;
80619;SDS011;69979;53.682;-2.690;2023-09-19T05:32:16;4;;;4;;
80619;SDS011;69979;53.682;-2.690;2023-09-19T05:34:42;3;;;3;;
80619;SDS011;69979;53.682;-2.690;2023-09-19T05:37:08;5;;;3;;
80619;SDS011;69979;53.682;-2.690;2023-09-19T05:39:33;3;;;3;;
80619;SDS011;69979;53.682;-2.690;2023-09-19T05:41:59;5;;;3;;
80619;SDS011;69979;53.682;-2.690;2023-09-19T05:44:24;3;;;3;;
80619;SDS011;69979;53.682;-2.690;2023-09-19T05:46:50;2;;;2;;
80619;SDS011;69979;53.682;-2.690;2023-09-19T05:49:16;4;;;3;;
80619;SDS011;69979;53.682;-2.690;2023-09-19T05:51:41;4;;;3;;
80619;SDS011;69979;53.682;-2.690;2023-09-19T05:54:07;4;;;4;;
80619;SDS011;69979;53.682;-2.690;2023-09-19T05:56:32;2;;;2;;
80619;SDS011;69979;53.682;-2.690;2023-09-19T05:58:58;2;;;2;;
80619;SDS011;69979;53.682;-2.690;2023-09-19T06:01:23;3;;;2;;
80619;SDS011;69979;53.682;-2.690;2023-09-19T06:03:49;2;;;2;;
80619;SDS011;69979;53.682;-2.690;2023-09-19T06:06:15;2;;;2;;
80619;SDS011;69979;53.682;-2.690;2023-09-19T06:08:40;5;;;4;;
80619;SDS011;69979;53.682;-2.690;2023-09-19T06:11:06;4;;;3;;
80619;SDS011;69979;53.682;-2.690;2023-09-19T06:13:31;2;;;2;;
80619;SDS011;69979;53.682;-2.690;2023-09-19T06:15:57;3;;;3;;
80619;SDS011;69979;53.682;-2.690;2023-09-19T06:18:23;5;;;2;;
80619;SDS011;69979;53.682;-2.690;2023-09-19T06:20:48;3;;;3;;
80619;SDS011;69979;53.682;-2.690;2023-09-19T06:23:14;3;;;3;;
80619;SDS011;69979;53.682;-2.690;2023-09-19T06:25:39;2;;;2;;
80619;SDS011;69979;53.682;-2.690;2023-09-19T06:28:05;2;;;2;;
80619;SDS011;69979;53.682;-2.690;2023-09-19T06:30:31;1;;;1;;
80619;SDS011;69979;53.682;-2.690;2023-09-19T06:32:56;2;;;1;;
80619;SDS011;69979;53.682;-2.690;2023-09-19T06:35:21;2;;;2;;
80619;SDS011;69979;53.682;-2.690;2023-09-19T06:37:47;2;;;2;;
80619;SDS011;69979;53.682;-2.690;2023-09-19T06:40:13;1;;;1;;
80619;SDS011;69979;53.682;-2.690;2023-09-19T06:42:39;2;;;2;;
80619;SDS011;69979;53.682;-2.690;2023-09-19T06:45:04;2;;;2;;
80619;SDS011;69979;53.682;-2.690;2023-09-19T06:47:29;3;;;2;;
80619;SDS011;69979;53.682;-2.690;2023-09-19T06:49:55;2;;;1;;
80619;SDS011;69979;53.682;-2.690;2023-09-19T06:52:21;2;;;2;;
80619;SDS011;69979;53.682;-2.690;2023-09-19T06:54:46;2;;;2;;
80619;SDS011;69979;53.682;-2.690;2023-09-19T06:57:12;2;;;2;;
80619;SDS011;69979;53.682;-2.690;2023-09-19T06:59:38;4;;;3;;
80619;SDS011;69979;53.682;-2.690;2023-09-19T07:02:03;4;;;4;;
80619;SDS011;69979;53.682;-2.690;2023-09-19T07:04:29;4;;;4;;
80619;SDS011;69979;53.682;-2.690;2023-09-19T07:06:54;4;;;4;;
80619;SDS011;69979;53.682;-2.690;2023-09-19T07:09:20;5;;;5;;
80619;SDS011;69979;53.682;-2.690;2023-09-19T07:11:45;5;;;5;;
80619;SDS011;69979;53.682;-2.690;2023-09-19T07:14:11;5;;;5;;
80619;SDS011;69979;53.682;-2.690;2023-09-19T07:16:36;6;;;6;;
80619;SDS011;69979;53.682;-2.690;2023-09-19T07:19:02;6;;;6;;
80619;SDS011;69979;53.682;-2.690;2023-09-19T07:21:27;7;;;7;;
80619;SDS011;69979;53.682;-2.690;2023-09-19T07:23:53;4;;;4;;
80619;SDS011;69979;53.682;-2.690;2023-09-19T07:26:18;7;;;5;;
80619;SDS011;69979;53.682;-2.690;2023-09-19T07:28:44;5;;;5;;
80619;SDS011;69979;53.682;-2.690;2023-09-19T07:31:10;5;;;5;;
80619;SDS011;69979;53.682;-2.690;2023-09-19T07:33:35;5;;;5;;
80619;SDS011;69979;53.682;-2.690;2023-09-19T07:36:01;5;;;5;;
80619;SDS011;69979;53.682;-2.690;2023-09-19T07:38:26;3;;;3;;
80619;SDS011;69979;53.682;-2.690;2023-09-19T07:40:59;5;;;5;;
80619;SDS011;69979;53.682;-2.690;2023-09-19T07:43:21;4;;;4;;
80619;SDS011;69979;53.682;-2.690;2023-09-19T07:45:47;2;;;2;;
80619;SDS011;69979;53.682;-2.690;2023-09-19T07:48:12;3;;;3;;
80619;SDS011;69979;53.682;-2.690;2023-09-19T07:50:38;2;;;2;;
80619;SDS011;69979;53.682;-2.690;2023-09-19T07:53:03;2;;;2;;
80619;SDS011;69979;53.682;-2.690;2023-09-19T07:55:29;2;;;2;;
80619;SDS011;69979;53.682;-2.690;2023-09-19T07:57:54;0;;;0;;
80619;SDS011;69979;53.682;-2.690;2023-09-19T08:00:20;1;;;1;;
80619;SDS011;69979;53.682;-2.690;2023-09-19T08:02:45;3;;;2;;
80619;SDS011;69979;53.682;-2.690;2023-09-19T08:05:11;1;;;1;;
80619;SDS011;69979;53.682;-2.690;2023-09-19T08:07:36;0;;;0;;
80619;SDS011;69979;53.682;-2.690;2023-09-19T08:10:02;1;;;1;;
80619;SDS011;69979;53.682;-2.690;2023-09-19T08:12:27;1;;;1;;
80619;SDS011;69979;53.682;-2.690;2023-09-19T08:14:53;0;;;0;;
80619;SDS011;69979;53.682;-2.690;2023-09-19T08:17:18;2;;;2;;
80619;SDS011;69979;53.682;-2.690;2023-09-19T08:19:45;0;;;0;;
80619;SDS011;69979;53.682;-2.690;2023-09-19T08:22:09;0;;;0;;
80619;SDS011;69979;53.682;-2.690;2023-09-19T08:24:35;0;;;0;;
80619;SDS011;69979;53.682;-2.690;2023-09-19T08:27:00;0;;;0;;
80619;SDS011;69979;53.682;-2.690;2023-09-19T08:29:26;1;;;1;;
80619;SDS011;69979;53.682;-2.690;2023-09-19T08:31:51;0;;;0;;
80619;SDS011;69979;53.682;-2.690;2023-09-19T08:34:17;0;;;0;;
80619;SDS011;69979;53.682;-2.690;2023-09-19T08:36:42;0;;;0;;
80619;SDS011;69979;53.682;-2.690;2023-09-19T08:39:08;0;;;0;;
80619;SDS011;69979;53.682;-2.690;2023-09-19T08:41:33;0;;;0;;
80619;SDS011;69979;53.682;-2.690;2023-09-19T08:43:59;0;;;0;;
80619;SDS011;69979;53.682;-2.690;2023-09-19T08:46:24;1;;;0;;
80619;SDS011;69979;53.682;-2.690;2023-09-19T08:48:50;0;;;0;;
80619;SDS011;69979;53.682;-2.690;2023-09-19T08:51:18;0;;;0;;
80619;SDS011;69979;53.682;-2.690;2023-09-19T08:53:41;1;;;1;;
80619;SDS011;69979;53.682;-2.690;2023-09-19T08:56:06;0;;;0;;
80619;SDS011;69979;53.682;-2.690;2023-09-19T08:58:33;1;;;0;;
80619;SDS011;69979;53.682;-2.690;2023-09-19T09:00:57;0;;;0;;
80619;SDS011;69979;53.682;-2.690;2023-09-19T09:03:22;0;;;0;;
80619;SDS011;69979;53.682;-2.690;2023-09-19T09:05:48;0;;;0;;
80619;SDS011;69979;53.682;-2.690;2023-09-19T09:08:13;0;;;0;;
80619;SDS011;69979;53.682;-2.690;2023-09-19T09:10:39;1;;;0;;
80619;SDS011;69979;53.682;-2.690;2023-09-19T09:13:04;0;;;0;;
80619;SDS011;69979;53.682;-2.690;2023-09-19T09:15:30;0;;;0;;
80619;SDS011;69979;53.682;-2.690;2023-09-19T09:17:55;0;;;0;;
80619;SDS011;69979;53.682;-2.690;2023-09-19T09:20:21;0;;;0;;
80619;SDS011;69979;53.682;-2.690;2023-09-19T09:22:51;0;;;0;;
80619;SDS011;69979;53.682;-2.690;2023-09-19T09:25:11;0;;;0;;
80619;SDS011;69979;53.682;-2.690;2023-09-19T09:27:40;0;;;0;;
80619;SDS011;69979;53.682;-2.690;2023-09-19T09:30:03;0;;;0;;
80619;SDS011;69979;53.682;-2.690;2023-09-19T09:32:28;0;;;0;;
80619;SDS011;69979;53.682;-2.690;2023-09-19T09:34:54;0;;;0;;
80619;SDS011;69979;53.682;-2.690;2023-09-19T09:37:19;1;;;0;;
80619;SDS011;69979;53.682;-2.690;2023-09-19T09:39:49;0;;;0;;
80619;SDS011;69979;53.682;-2.690;2023-09-19T09:42:10;0;;;0;;
80619;SDS011;69979;53.682;-2.690;2023-09-19T09:44:35;0;;;0;;
80619;SDS011;69979;53.682;-2.690;2023-09-19T09:47:00;0;;;0;;
80619;SDS011;69979;53.682;-2.690;2023-09-19T09:49:26;1;;;0;;
80619;SDS011;69979;53.682;-2.690;2023-09-19T09:54:17;0;;;0;;
80619;SDS011;69979;53.682;-2.690;2023-09-19T09:59:08;0;;;0;;
80619;SDS011;69979;53.682;-2.690;2023-09-19T10:03:58;1;;;1;;
80619;SDS011;69979;53.682;-2.690;2023-09-19T10:06:24;1;;;0;;
80619;SDS011;69979;53.682;-2.690;2023-09-19T10:08:58;0;;;0;;
80619;SDS011;69979;53.682;-2.690;2023-09-19T10:11:15;1;;;1;;
80619;SDS011;69979;53.682;-2.690;2023-09-19T10:13:40;1;;;1;;
80619;SDS011;69979;53.682;-2.690;2023-09-19T10:16:06;0;;;0;;
80619;SDS011;69979;53.682;-2.690;2023-09-19T10:18:31;0;;;0;;
80619;SDS011;69979;53.682;-2.690;2023-09-19T10:20:56;0;;;0;;
80619;SDS011;69979;53.682;-2.690;2023-09-19T10:23:22;3;;;2;;
80619;SDS011;69979;53.682;-2.690;2023-09-19T10:25:48;2;;;0;;
80619;SDS011;69979;53.682;-2.690;2023-09-19T10:28:13;0;;;0;;
80619;SDS011;69979;53.682;-2.690;2023-09-19T10:30:40;0;;;0;;
80619;SDS011;69979;53.682;-2.690;2023-09-19T10:33:04;2;;;1;;
80619;SDS011;69979;53.682;-2.690;2023-09-19T10:35:29;2;;;2;;
80619;SDS011;69979;53.682;-2.690;2023-09-19T10:37:55;2;;;1;;
80619;SDS011;69979;53.682;-2.690;2023-09-19T10:40:20;0;;;0;;
80619;SDS011;69979;53.682;-2.690;2023-09-19T10:42:45;1;;;0;;
80619;SDS011;69979;53.682;-2.690;2023-09-19T10:45:11;1;;;1;;
80619;SDS011;69979;53.682;-2.690;2023-09-19T10:47:36;3;;;2;;
80619;SDS011;69979;53.682;-2.690;2023-09-19T10:50:02;1;;;1;;
80619;SDS011;69979;53.682;-2.690;2023-09-19T10:52:27;2;;;1;;
80619;SDS011;69979;53.682;-2.690;2023-09-19T10:54:53;3;;;1;;
80619;SDS011;69979;53.682;-2.690;2023-09-19T10:57:19;0;;;0;;
80619;SDS011;69979;53.682;-2.690;2023-09-19T11:04:35;1;;;1;;
80619;SDS011;69979;53.682;-2.690;2023-09-19T11:07:01;1;;;1;;
80619;SDS011;69979;53.682;-2.690;2023-09-19T11:09:25;0;;;0;;
80619;SDS011;69979;53.682;-2.690;2023-09-19T11:11:51;0;;;0;;
80619;SDS011;69979;53.682;-2.690;2023-09-19T11:19:07;2;;;1;;
80619;SDS011;69979;53.682;-2.690;2023-09-19T11:21:41;2;;;2;;
80619;SDS011;69979;53.682;-2.690;2023-09-19T11:28:49;0;;;0;;
80619;SDS011;69979;53.682;-2.690;2023-09-19T11:33:40;1;;;1;;
80619;SDS011;69979;53.682;-2.690;2023-09-19T11:36:06;1;;;1;;
80619;SDS011;69979;53.682;-2.690;2023-09-19T11:43:28;1;;;1;;
80619;SDS011;69979;53.682;-2.690;2023-09-19T11:48:12;1;;;1;;
80619;SDS011;69979;53.682;-2.690;2023-09-19T11:50:38;1;;;0;;
80619;SDS011;69979;53.682;-2.690;2023-09-19T11:53:03;0;;;0;;
80619;SDS011;69979;53.682;-2.690;2023-09-19T11:55:29;0;;;0;;
80619;SDS011;69979;53.682;-2.690;2023-09-19T11:57:55;1;;;0;;
80619;SDS011;69979;53.682;-2.690;2023-09-19T12:00:20;0;;;0;;
80619;SDS011;69979;53.682;-2.690;2023-09-19T12:02:46;2;;;1;;
80619;SDS011;69979;53.682;-2.690;2023-09-19T12:05:11;1;;;1;;
80619;SDS011;69979;53.682;-2.690;2023-09-19T12:10:03;1;;;1;;
80619;SDS011;69979;53.682;-2.690;2023-09-19T12:12:27;0;;;0;;
80619;SDS011;69979;53.682;-2.690;2023-09-19T12:14:53;0;;;0;;
80619;SDS011;69979;53.682;-2.690;2023-09-19T12:17:18;1;;;1;;
80619;SDS011;69979;53.682;-2.690;2023-09-19T12:22:09;0;;;0;;
80619;SDS011;69979;53.682;-2.690;2023-09-19T12:24:34;0;;;0;;
80619;SDS011;69979;53.682;-2.690;2023-09-19T12:27:00;1;;;1;;
80619;SDS011;69979;53.682;-2.690;2023-09-19T12:29:25;0;;;0;;
80619;SDS011;69979;53.682;-2.690;2023-09-19T12:31:51;0;;;0;;
80619;SDS011;69979;53.682;-2.690;2023-09-19T12:34:16;0;;;0;;
80619;SDS011;69979;53.682;-2.690;2023-09-19T12:36:42;2;;;0;;
80619;SDS011;69979;53.682;-2.690;2023-09-19T12:39:07;0;;;0;;
80619;SDS011;69979;53.682;-2.690;2023-09-19T12:41:33;1;;;1;;
80619;SDS011;69979;53.682;-2.690;2023-09-19T12:43:58;1;;;1;;
80619;SDS011;69979;53.682;-2.690;2023-09-19T12:46:23;0;;;0;;
80619;SDS011;69979;53.682;-2.690;2023-09-19T12:48:49;1;;;1;;
80619;SDS011;69979;53.682;-2.690;2023-09-19T12:51:14;1;;;1;;
80619;SDS011;69979;53.682;-2.690;2023-09-19T12:53:40;0;;;0;;
80619;SDS011;69979;53.682;-2.690;2023-09-19T12:56:05;1;;;1;;
80619;SDS011;69979;53.682;-2.690;2023-09-19T12:58:31;0;;;0;;
80619;SDS011;69979;53.682;-2.690;2023-09-19T13:00:56;1;;;1;;
80619;SDS011;69979;53.682;-2.690;2023-09-19T13:03:25;1;;;1;;
80619;SDS011;69979;53.682;-2.690;2023-09-19T13:05:48;0;;;0;;
80619;SDS011;69979;53.682;-2.690;2023-09-19T13:15:29;0;;;0;;
80619;SDS011;69979;53.682;-2.690;2023-09-19T13:17:54;0;;;0;;
80619;SDS011;69979;53.682;-2.690;2023-09-19T13:20:21;0;;;0;;
80619;SDS011;69979;53.682;-2.690;2023-09-19T13:22:45;0;;;0;;
80619;SDS011;69979;53.682;-2.690;2023-09-19T13:25:11;0;;;0;;
80619;SDS011;69979;53.682;-2.690;2023-09-19T13:27:35;0;;;0;;
80619;SDS011;69979;53.682;-2.690;2023-09-19T13:30:01;1;;;1;;
80619;SDS011;69979;53.682;-2.690;2023-09-19T13:32:26;0;;;0;;
80619;SDS011;69979;53.682;-2.690;2023-09-19T13:34:52;1;;;0;;
80619;SDS011;69979;53.682;-2.690;2023-09-19T13:37:17;0;;;0;;
80619;SDS011;69979;53.682;-2.690;2023-09-19T13:39:43;1;;;1;;
80619;SDS011;69979;53.682;-2.690;2023-09-19T13:42:08;0;;;0;;
80619;SDS011;69979;53.682;-2.690;2023-09-19T13:44:33;0;;;0;;
80619;SDS011;69979;53.682;-2.690;2023-09-19T13:46:59;0;;;0;;
80619;SDS011;69979;53.682;-2.690;2023-09-19T13:49:24;0;;;0;;
80619;SDS011;69979;53.682;-2.690;2023-09-19T13:51:50;1;;;1;;
80619;SDS011;69979;53.682;-2.690;2023-09-19T13:54:15;2;;;1;;
80619;SDS011;69979;53.682;-2.690;2023-09-19T13:56:41;1;;;1;;
80619;SDS011;69979;53.682;-2.690;2023-09-19T13:59:06;1;;;1;;
80619;SDS011;69979;53.682;-2.690;2023-09-19T14:01:31;0;;;0;;
80619;SDS011;69979;53.682;-2.690;2023-09-19T14:03:57;1;;;1;;
80619;SDS011;69979;53.682;-2.690;2023-09-19T14:06:22;1;;;1;;
80619;SDS011;69979;53.682;-2.690;2023-09-19T14:08:48;0;;;0;;
80619;SDS011;69979;53.682;-2.690;2023-09-19T14:11:13;1;;;0;;
80619;SDS011;69979;53.682;-2.690;2023-09-19T14:13:39;1;;;1;;
80619;SDS011;69979;53.682;-2.690;2023-09-19T14:16:04;1;;;1;;
80619;SDS011;69979;53.682;-2.690;2023-09-19T14:18:30;1;;;1;;
80619;SDS011;69979;53.682;-2.690;2023-09-19T14:20:55;0;;;0;;
80619;SDS011;69979;53.682;-2.690;2023-09-19T14:23:21;0;;;0;;
80619;SDS011;69979;53.682;-2.690;2023-09-19T14:25:46;0;;;0;;
80619;SDS011;69979;53.682;-2.690;2023-09-19T14:28:11;1;;;1;;
80619;SDS011;69979;53.682;-2.690;2023-09-19T14:30:37;2;;;2;;
80619;SDS011;69979;53.682;-2.690;2023-09-19T14:33:02;1;;;1;;
80619;SDS011;69979;53.682;-2.690;2023-09-19T14:35:28;2;;;2;;
80619;SDS011;69979;53.682;-2.690;2023-09-19T14:37:53;3;;;2;;
80619;SDS011;69979;53.682;-2.690;2023-09-19T14:40:19;2;;;2;;
80619;SDS011;69979;53.682;-2.690;2023-09-19T14:42:44;4;;;2;;
80619;SDS011;69979;53.682;-2.690;2023-09-19T14:45:10;2;;;2;;
80619;SDS011;69979;53.682;-2.690;2023-09-19T14:47:35;7;;;7;;
80619;SDS011;69979;53.682;-2.690;2023-09-19T14:50:01;8;;;7;;
80619;SDS011;69979;53.682;-2.690;2023-09-19T14:52:26;6;;;6;;
80619;SDS011;69979;53.682;-2.690;2023-09-19T14:54:51;8;;;5;;
80619;SDS011;69979;53.682;-2.690;2023-09-19T14:57:17;6;;;5;;
80619;SDS011;69979;53.682;-2.690;2023-09-19T14:59:42;9;;;8;;
80619;SDS011;69979;53.682;-2.690;2023-09-19T15:02:08;6;;;3;;
80619;SDS011;69979;53.682;-2.690;2023-09-19T15:04:33;3;;;3;;
80619;SDS011;69979;53.682;-2.690;2023-09-19T15:06:58;6;;;6;;
80619;SDS011;69979;53.682;-2.690;2023-09-19T15:09:24;5;;;4;;
80619;SDS011;69979;53.682;-2.690;2023-09-19T15:11:49;7;;;6;;
80619;SDS011;69979;53.682;-2.690;2023-09-19T15:14:15;5;;;4;;
80619;SDS011;69979;53.682;-2.690;2023-09-19T15:16:40;4;;;3;;
80619;SDS011;69979;53.682;-2.690;2023-09-19T15:19:05;5;;;5;;
80619;SDS011;69979;53.682;-2.690;2023-09-19T15:21:31;5;;;5;;
80619;SDS011;69979;53.682;-2.690;2023-09-19T15:23:56;10;;;8;;
80619;SDS011;69979;53.682;-2.690;2023-09-19T15:26:22;5;;;3;;
80619;SDS011;69979;53.682;-2.690;2023-09-19T15:28:47;4;;;4;;
80619;SDS011;69979;53.682;-2.690;2023-09-19T15:31:13;4;;;3;;
80619;SDS011;69979;53.682;-2.690;2023-09-19T15:33:39;6;;;4;;
80619;SDS011;69979;53.682;-2.690;2023-09-19T15:36:04;4;;;4;;
80619;SDS011;69979;53.682;-2.690;2023-09-19T15:38:29;4;;;4;;
80619;SDS011;69979;53.682;-2.690;2023-09-19T15:40:54;5;;;3;;
80619;SDS011;69979;53.682;-2.690;2023-09-19T15:43:19;4;;;4;;
80619;SDS011;69979;53.682;-2.690;2023-09-19T15:45:45;4;;;4;;
80619;SDS011;69979;53.682;-2.690;2023-09-19T15:48:10;5;;;4;;
80619;SDS011;69979;53.682;-2.690;2023-09-19T15:50:35;4;;;4;;
80619;SDS011;69979;53.682;-2.690;2023-09-19T15:53:01;2;;;2;;
80619;SDS011;69979;53.682;-2.690;2023-09-19T15:55:26;3;;;3;;
80619;SDS011;69979;53.682;-2.690;2023-09-19T15:57:51;5;;;5;;
80619;SDS011;69979;53.682;-2.690;2023-09-19T16:00:17;4;;;4;;
80619;SDS011;69979;53.682;-2.690;2023-09-19T16:02:42;4;;;3;;
80619;SDS011;69979;53.682;-2.690;2023-09-19T16:05:07;6;;;4;;
80619;SDS011;69979;53.682;-2.690;2023-09-19T16:07:33;4;;;4;;
80619;SDS011;69979;53.682;-2.690;2023-09-19T16:09:58;4;;;4;;
80619;SDS011;69979;53.682;-2.690;2023-09-19T16:12:23;4;;;4;;
80619;SDS011;69979;53.682;-2.690;2023-09-19T16:14:49;6;;;4;;
80619;SDS011;69979;53.682;-2.690;2023-09-19T16:17:14;3;;;3;;
80619;SDS011;69979;53.682;-2.690;2023-09-19T16:19:40;3;;;3;;
80619;SDS011;69979;53.682;-2.690;2023-09-19T16:22:05;3;;;3;;
80619;SDS011;69979;53.682;-2.690;2023-09-19T16:24:30;3;;;2;;
80619;SDS011;69979;53.682;-2.690;2023-09-19T16:26:56;4;;;4;;
80619;SDS011;69979;53.682;-2.690;2023-09-19T16:29:21;6;;;4;;
80619;SDS011;69979;53.682;-2.690;2023-09-19T16:31:47;5;;;4;;
80619;SDS011;69979;53.682;-2.690;2023-09-19T16:34:12;6;;;5;;
80619;SDS011;69979;53.682;-2.690;2023-09-19T16:36:37;4;;;4;;
80619;SDS011;69979;53.682;-2.690;2023-09-19T16:39:03;3;;;2;;